Hermanos Serdan International Airport
MMPB : now visible

Airfield :











YOU CAN JOIN US ON...

 
LOGIN :

Register | Disclaimer

   EN    FR    IT 

 









Legend :    VFR   Marginal VFR   IFR   Intensive IFR   Very Intensive IFR
Visi :
Ceiling :
>= 8 km
>= 3000ft
5 to 8 km
1000 to 3000 ft
1500m to 5 km
500 to 1000 ft
800 to 1500m
200 to 500 ft
< 800m
< 200 ft
Symbols :   Thunderstorms  Fog  Heavy snow  Heavy precipitations  Wind > 20 kt







- Airport Elevation : 7361 ft
- IATA code : PBC


MMPB - Hermanos Serdan International

CURRENT METAR :
  • 202045Z 18010G20KT 11SM FEW025 22/03 A3024 RMK 8/100 AC

EXPIRED METARs :
  • 201940Z 18008KT 9SM SCT025 23/04 A3026 RMK 8/100 HZY PRESFR
  • 201841Z 14004KT 9SM SCT025 22/04 A3030 RMK 8/100 HZY

TAF TAF MMPB
Valid from the 20 at 18:00 until the 21 at 18:00 UTC


201621Z 2018/2118 16008KT P6SM SCT020
BECMG 2020/2021 21015KT BKN025 BKN080
FM210200 12005KT P6SM SCT025 BKN080
BECMG 2105/2106 00000KT
FM211000 16005KT 6SM HZ BKN020 BKN080
BECMG 2115/2116 SCT020 BKN080
MMFR FIR / North America



MET'MAP, your aeronautical weather chart ! - Copyright ORBIFLY December 2007 - Disclaimer

ORBIFLY MET'MAP TEAM :

Programming & Development : Alexandra Zaïnal
Concept & Development : Baudouin d'Aumeries
Co-Development & Prog : Marc-Olivier Méhu
Technical & hardware support : Manuel Goepfert

Contact : metmap@orbifly.com




SOURCES & CREDITS :

   NOAA       Earth
Advisory